createdAt,value
2019-02-22T00:01:48.063Z,60.75
2019-02-22T00:04:16.347Z,59.42
2019-02-22T00:06:44.603Z,57.93
2019-02-22T00:09:32.322Z,58.08
2019-02-22T00:12:00.635Z,63.75
2019-02-22T00:14:28.887Z,62.13
2019-02-22T00:16:57.179Z,68.67
2019-02-22T00:19:25.431Z,64.72
2019-02-22T00:21:53.688Z,62.50
2019-02-22T00:24:21.968Z,59.42
2019-02-22T00:26:50.226Z,65.00
2019-02-22T00:29:18.556Z,64.67
2019-02-22T00:31:46.848Z,64.22
2019-02-22T00:34:15.144Z,62.93
2019-02-22T00:36:46.812Z,56.28
2019-02-22T00:39:15.282Z,56.75
2019-02-22T00:41:43.545Z,58.58
2019-02-22T00:44:11.842Z,66.10
2019-02-22T00:46:40.199Z,61.83
2019-02-22T00:49:08.633Z,58.58
2019-02-22T00:51:36.956Z,59.40
2019-02-22T00:54:05.239Z,67.60
2019-02-22T00:56:33.496Z,58.17
2019-02-22T00:59:01.756Z,61.50
2019-02-22T01:01:30.049Z,61.75
2019-02-22T01:03:58.315Z,55.20
2019-02-22T01:06:26.580Z,54.18
2019-02-22T01:08:54.871Z,61.13
2019-02-22T01:11:23.133Z,59.73
2019-02-22T01:13:51.387Z,54.85
2019-02-22T01:16:19.855Z,68.65
2019-02-22T01:18:48.108Z,59.03
2019-02-22T01:21:16.372Z,59.85
2019-02-22T01:23:44.667Z,55.33
2019-02-22T01:26:12.948Z,61.15
2019-02-22T01:28:41.217Z,56.70
2019-02-22T01:31:09.500Z,62.00
2019-02-22T01:33:57.217Z,51.50
2019-02-22T01:36:25.477Z,60.60
2019-02-22T01:38:53.731Z,56.63
2019-02-22T01:41:22.016Z,59.45
2019-02-22T01:43:50.279Z,59.48
2019-02-22T01:46:18.607Z,54.95
2019-02-22T01:48:46.942Z,54.13
2019-02-22T01:51:15.189Z,59.77
2019-02-22T01:53:43.454Z,58.83
2019-02-22T01:56:13.328Z,52.33
2019-02-22T01:58:48.832Z,54.38
2019-02-22T02:01:11.567Z,50.87
2019-02-22T02:03:39.844Z,59.95
2019-02-22T02:06:08.215Z,59.23
2019-02-22T02:08:36.493Z,64.20
2019-02-22T02:11:04.779Z,64.67
2019-02-22T02:13:33.045Z,74.92
2019-02-22T02:16:01.314Z,86.57
2019-02-22T02:18:29.603Z,99.40
2019-02-22T02:20:57.889Z,112.20
2019-02-22T02:23:26.272Z,104.47
2019-02-22T02:25:54.627Z,111.50
2019-02-22T02:28:23.022Z,121.10
2019-02-22T02:30:51.288Z,99.75
2019-02-22T02:33:19.597Z,93.55
2019-02-22T02:35:48.062Z,100.38
2019-02-22T02:38:16.319Z,96.50
2019-02-22T02:40:44.607Z,94.45
2019-02-22T02:43:12.898Z,90.67
2019-02-22T02:45:41.169Z,92.88
2019-02-22T02:48:09.458Z,89.32
2019-02-22T02:50:37.720Z,95.47
2019-02-22T02:53:05.992Z,100.02
2019-02-22T02:55:35.450Z,90.72
2019-02-22T02:58:03.781Z,93.33
2019-02-22T03:00:32.053Z,93.30
2019-02-22T03:03:00.406Z,92.65
2019-02-22T03:08:34.621Z,94.80
2019-02-22T03:11:02.968Z,99.58
2019-02-22T03:13:31.236Z,98.97
2019-02-22T03:15:59.519Z,99.00
2019-02-22T03:18:27.788Z,97.22
2019-02-22T03:20:56.070Z,97.95
2019-02-22T03:23:24.428Z,96.87
2019-02-22T03:25:52.704Z,100.47
2019-02-22T03:28:21.040Z,95.12
2019-02-22T03:30:49.340Z,101.62
2019-02-22T03:33:17.592Z,96.87
2019-02-22T03:35:45.920Z,97.00
2019-02-22T03:38:20.005Z,96.97
2019-02-22T03:40:48.261Z,88.95
2019-02-22T03:43:16.524Z,88.33
2019-02-22T03:45:44.807Z,89.10
2019-02-22T03:48:13.085Z,87.12
2019-02-22T03:50:41.444Z,91.97
2019-02-22T03:53:11.374Z,97.62
2019-02-22T03:55:39.635Z,104.20
2019-02-22T03:58:07.893Z,98.72
2019-02-22T04:00:36.177Z,99.42
2019-02-22T04:03:04.430Z,98.17
2019-02-22T04:05:32.693Z,92.30
2019-02-22T04:08:01.008Z,87.53
2019-02-22T04:10:29.273Z,92.02
2019-02-22T04:12:57.534Z,94.22
2019-02-22T04:15:25.817Z,85.80
2019-02-22T04:17:54.081Z,91.87
2019-02-22T04:20:22.336Z,94.55
2019-02-22T04:22:50.635Z,93.17
2019-02-22T04:25:18.889Z,96.22
2019-02-22T04:27:47.147Z,97.47
2019-02-22T04:30:15.432Z,89.83
2019-02-22T04:32:43.687Z,95.53
2019-02-22T04:35:11.948Z,101.00
2019-02-22T04:37:40.239Z,94.92
2019-02-22T04:40:08.501Z,97.20
2019-02-22T04:42:36.761Z,99.67
2019-02-22T04:45:05.884Z,99.03
2019-02-22T04:47:34.141Z,98.87
2019-02-22T04:50:02.426Z,98.75
2019-02-22T04:52:30.780Z,95.60
2019-02-22T04:54:59.036Z,95.70
2019-02-22T04:58:00.580Z,93.15
2019-02-22T05:00:28.846Z,89.25
2019-02-22T05:02:57.114Z,88.92
2019-02-22T05:05:25.403Z,95.95
2019-02-22T05:07:53.709Z,92.92
2019-02-22T05:10:21.977Z,96.87
2019-02-22T05:12:50.247Z,88.37
2019-02-22T05:15:18.514Z,89.85
2019-02-22T05:17:46.793Z,97.00
2019-02-22T05:20:15.079Z,88.17
2019-02-22T05:22:43.348Z,91.67
2019-02-22T05:25:11.600Z,93.27
2019-02-22T05:27:39.997Z,101.60
2019-02-22T05:30:08.631Z,97.75
2019-02-22T05:32:36.964Z,92.47
2019-02-22T05:35:05.243Z,95.35
2019-02-22T05:37:33.506Z,91.67
2019-02-22T05:40:01.837Z,89.17
2019-02-22T05:42:30.201Z,89.70
2019-02-22T05:44:58.455Z,98.30
2019-02-22T05:47:26.724Z,93.85
2019-02-22T05:49:55.024Z,94.90
2019-02-22T05:52:23.296Z,100.22
2019-02-22T05:54:51.632Z,98.37
2019-02-22T05:57:19.928Z,98.62
2019-02-22T05:59:48.191Z,102.85
2019-02-22T06:02:16.482Z,87.27
2019-02-22T06:04:44.845Z,97.72
2019-02-22T06:07:14.617Z,96.42
2019-02-22T06:09:43.055Z,99.25
2019-02-22T06:12:12.074Z,97.33
2019-02-22T06:14:40.427Z,99.07
2019-02-22T06:17:14.624Z,90.90
2019-02-22T06:19:38.786Z,90.35
2019-02-22T06:22:07.056Z,94.17
2019-02-22T06:24:35.352Z,94.70
2019-02-22T06:27:03.701Z,103.92
2019-02-22T06:29:31.968Z,107.55
2019-02-22T06:32:00.227Z,109.22
2019-02-22T06:34:28.531Z,107.30
2019-02-22T06:37:01.984Z,106.72
2019-02-22T06:39:26.891Z,126.00
2019-02-22T06:41:55.271Z,111.30
2019-02-22T06:44:23.519Z,153.85
2019-02-22T06:46:51.786Z,125.82
2019-02-22T06:49:20.068Z,111.83
2019-02-22T06:51:48.338Z,128.12
2019-02-22T06:54:16.601Z,113.75
2019-02-22T06:56:44.901Z,116.30
2019-02-22T06:59:13.160Z,101.80
2019-02-22T07:01:41.424Z,99.67
2019-02-22T07:04:09.712Z,96.63
2019-02-22T07:06:37.973Z,115.75
2019-02-22T07:09:06.385Z,114.88
2019-02-22T07:11:37.870Z,105.85
2019-02-22T07:14:06.348Z,103.90
2019-02-22T07:16:34.616Z,112.70
2019-02-22T07:19:02.947Z,107.17
2019-02-22T07:21:43.757Z,140.77
2019-02-22T07:24:02.742Z,108.42
2019-02-22T07:26:31.172Z,142.22
2019-02-22T07:28:59.445Z,123.95
2019-02-22T07:31:27.710Z,142.62
2019-02-22T07:33:55.993Z,106.50
2019-02-22T07:36:24.252Z,115.57
2019-02-22T07:38:52.530Z,121.37
2019-02-22T07:41:20.804Z,88.65
2019-02-22T07:43:49.059Z,97.00
2019-02-22T07:46:17.316Z,88.67
2019-02-22T07:48:45.611Z,86.47
2019-02-22T07:51:13.911Z,101.15
2019-02-22T07:53:42.170Z,93.78
2019-02-22T07:56:10.454Z,81.25
2019-02-22T07:58:38.713Z,68.90
2019-02-22T08:01:06.981Z,71.50
2019-02-22T08:03:37.317Z,77.55
2019-02-22T08:06:05.272Z,89.65
2019-02-22T08:08:33.520Z,88.97
2019-02-22T08:11:01.821Z,86.53
2019-02-22T08:13:30.085Z,103.27
2019-02-22T08:15:58.342Z,89.47
2019-02-22T08:18:26.709Z,203.75
2019-02-22T08:20:54.960Z,67.22
2019-02-22T08:23:23.216Z,65.85
2019-02-22T08:25:51.508Z,72.10
2019-02-22T08:28:19.755Z,64.60
2019-02-22T08:30:48.017Z,71.55
2019-02-22T08:33:16.296Z,56.92
2019-02-22T08:35:44.557Z,62.88
2019-02-22T08:38:12.898Z,60.92
2019-02-22T08:40:41.300Z,58.08
2019-02-22T08:43:09.568Z,61.37
2019-02-22T08:45:37.856Z,51.08
2019-02-22T08:48:25.590Z,52.73
2019-02-22T08:50:53.865Z,48.45
2019-02-22T08:53:22.124Z,47.43
2019-02-22T08:56:09.900Z,50.70
2019-02-22T08:58:38.156Z,42.38
2019-02-22T09:01:06.428Z,49.65
2019-02-22T09:03:34.723Z,49.42
2019-02-22T09:06:03.091Z,43.00
2019-02-22T09:08:31.587Z,49.27
2019-02-22T09:11:00.798Z,56.77
2019-02-22T09:13:29.473Z,60.70
2019-02-22T09:15:57.780Z,52.93
2019-02-22T09:18:26.068Z,61.92
2019-02-22T09:20:54.318Z,57.23
2019-02-22T09:23:22.665Z,53.75
2019-02-22T09:25:50.967Z,46.85
2019-02-22T09:28:19.230Z,41.55
2019-02-22T09:30:48.556Z,45.12
2019-02-22T09:33:16.928Z,38.35
2019-02-22T09:35:45.187Z,40.90
2019-02-22T09:38:13.632Z,40.90
2019-02-22T09:40:42.135Z,38.88
2019-02-22T09:43:10.452Z,39.08
2019-02-22T09:45:38.726Z,37.30
2019-02-22T09:48:07.012Z,37.15
2019-02-22T09:50:35.277Z,36.85
2019-02-22T09:53:03.538Z,41.53
2019-02-22T09:55:31.822Z,34.95
2019-02-22T09:58:00.081Z,41.80
2019-02-22T10:00:28.441Z,42.62
2019-02-22T10:02:56.857Z,41.50
2019-02-22T10:05:25.116Z,39.75
2019-02-22T10:07:53.367Z,39.83
2019-02-22T10:10:21.671Z,40.28
2019-02-22T10:12:50.036Z,39.45
2019-02-22T10:15:18.297Z,37.20
2019-02-22T10:17:46.616Z,36.75
2019-02-22T10:20:14.960Z,35.75
2019-02-22T10:22:43.347Z,36.05
2019-02-22T10:25:11.641Z,34.27
2019-02-22T10:27:39.903Z,38.08
2019-02-22T10:30:10.825Z,36.42
2019-02-22T10:35:07.909Z,40.12
2019-02-22T10:37:36.183Z,40.80
2019-02-22T10:40:07.470Z,39.50
2019-02-22T10:42:35.743Z,40.80
2019-02-22T10:45:05.253Z,42.20
2019-02-22T10:47:33.560Z,44.60
2019-02-22T10:50:01.824Z,47.80
2019-02-22T10:52:30.093Z,40.70
2019-02-22T10:54:58.392Z,49.20
2019-02-22T10:57:26.656Z,42.85
2019-02-22T10:59:54.920Z,35.98
2019-02-22T11:02:23.211Z,37.55
2019-02-22T11:04:51.543Z,35.83
2019-02-22T11:07:19.824Z,37.05
2019-02-22T11:09:48.113Z,34.35
2019-02-22T11:12:16.375Z,35.85
2019-02-22T11:14:44.639Z,38.88
2019-02-22T11:17:12.951Z,36.17
2019-02-22T11:19:41.219Z,33.02
2019-02-22T11:22:09.484Z,36.42
2019-02-22T11:24:37.857Z,35.08
2019-02-22T11:27:06.187Z,37.40
2019-02-22T11:29:34.450Z,36.48
2019-02-22T11:32:02.746Z,34.15
2019-02-22T11:34:31.008Z,31.12
2019-02-22T11:36:59.324Z,34.23
2019-02-22T11:39:27.621Z,33.53
2019-02-22T11:41:55.900Z,29.82
2019-02-22T11:44:24.168Z,31.45
2019-02-22T11:46:52.575Z,24.47
2019-02-22T11:49:20.848Z,22.70
2019-02-22T11:51:49.224Z,18.35
2019-02-22T11:54:17.505Z,18.85
2019-02-22T11:56:45.768Z,19.10
2019-02-22T11:59:14.045Z,20.97
2019-02-22T12:01:42.341Z,23.67
2019-02-22T12:04:10.600Z,21.60
2019-02-22T12:06:38.980Z,20.65
2019-02-22T12:09:07.379Z,18.67
2019-02-22T12:11:35.648Z,20.65
2019-02-22T12:14:03.986Z,22.95
2019-02-22T12:16:32.272Z,23.30
2019-02-22T12:19:00.540Z,24.23
2019-02-22T12:21:28.807Z,19.70
2019-02-22T12:23:57.106Z,22.20
2019-02-22T12:26:25.371Z,23.83
2019-02-22T12:28:53.633Z,24.80
2019-02-22T12:31:21.984Z,22.30
2019-02-22T12:33:50.247Z,20.17
2019-02-22T12:36:18.512Z,22.48
2019-02-22T12:38:47.069Z,22.87
2019-02-22T12:41:15.444Z,20.82
2019-02-22T12:43:43.708Z,23.27
2019-02-22T12:46:12.016Z,19.75
2019-02-22T12:48:40.283Z,18.85
2019-02-22T12:51:08.547Z,20.08
2019-02-22T12:53:36.843Z,18.55
2019-02-22T12:56:05.125Z,19.17
2019-02-22T12:58:33.400Z,21.25
2019-02-22T13:01:01.707Z,22.17
2019-02-22T13:03:29.977Z,19.55
2019-02-22T13:05:58.330Z,22.98
2019-02-22T13:08:26.640Z,24.50
2019-02-22T13:10:54.914Z,24.02
2019-02-22T13:13:23.190Z,24.35
2019-02-22T13:15:51.566Z,24.82
2019-02-22T13:18:19.827Z,23.00
2019-02-22T13:20:48.098Z,27.70
2019-02-22T13:23:16.393Z,27.77
2019-02-22T13:25:44.659Z,26.95
2019-02-22T13:28:12.983Z,23.62
2019-02-22T13:30:41.307Z,29.77
2019-02-22T13:33:09.585Z,30.23
2019-02-22T13:35:37.944Z,30.97
2019-02-22T13:38:06.345Z,31.10
2019-02-22T13:40:34.714Z,34.25
2019-02-22T13:43:05.304Z,36.00
2019-02-22T13:45:33.056Z,35.40
2019-02-22T13:48:01.317Z,30.55
2019-02-22T13:50:31.236Z,33.78
2019-02-22T13:52:59.525Z,32.20
2019-02-22T13:55:27.808Z,31.20
2019-02-22T13:57:56.068Z,32.53
2019-02-22T14:00:24.372Z,34.18
2019-02-22T14:02:52.641Z,33.78
2019-02-22T14:05:20.987Z,33.63
2019-02-22T14:07:53.235Z,35.58
2019-02-22T14:10:21.503Z,34.70
2019-02-22T14:12:49.769Z,32.45
2019-02-22T14:15:18.800Z,33.92
2019-02-22T14:17:47.332Z,33.85
2019-02-22T14:20:15.605Z,35.30
2019-02-22T14:22:43.884Z,35.75
2019-02-22T14:25:12.152Z,33.55
2019-02-22T14:27:40.420Z,37.23
2019-02-22T14:30:13.891Z,35.25
2019-02-22T14:32:42.172Z,36.83
2019-02-22T14:35:10.452Z,35.95
2019-02-22T14:37:38.829Z,35.63
2019-02-22T14:40:12.085Z,37.13
2019-02-22T14:42:40.347Z,36.65
2019-02-22T14:45:12.132Z,34.83
2019-02-22T14:47:40.398Z,33.92
2019-02-22T14:50:31.125Z,34.67
2019-02-22T14:52:59.444Z,35.10
2019-02-22T14:55:27.711Z,33.42
2019-02-22T14:57:56.009Z,35.33
2019-02-22T15:00:24.277Z,40.52
2019-02-22T15:02:52.553Z,38.90
2019-02-22T15:05:20.983Z,39.75
2019-02-22T15:07:49.257Z,40.73
2019-02-22T15:10:18.734Z,40.15
2019-02-22T15:12:47.368Z,39.95
2019-02-22T15:15:17.447Z,34.78
2019-02-22T15:17:56.932Z,35.40
2019-02-22T15:20:25.200Z,35.45
2019-02-22T15:22:53.549Z,34.73
2019-02-22T15:25:21.858Z,34.25
2019-02-22T15:27:50.129Z,34.40
2019-02-22T15:30:18.468Z,33.70
2019-02-22T15:32:47.115Z,34.95
2019-02-22T15:35:16.922Z,32.28
2019-02-22T15:37:45.202Z,33.00
2019-02-22T15:40:14.535Z,31.12
2019-02-22T15:42:42.843Z,32.35
2019-02-22T15:45:14.481Z,31.15
2019-02-22T15:47:42.829Z,32.30
2019-02-22T15:50:13.914Z,33.00
2019-02-22T15:52:42.219Z,31.45
2019-02-22T15:55:10.528Z,31.90
2019-02-22T15:57:38.794Z,30.10
2019-02-22T16:03:16.665Z,32.83
2019-02-22T16:05:47.086Z,37.85
2019-02-22T16:08:15.457Z,34.33
2019-02-22T16:10:43.881Z,40.00
2019-02-22T16:13:12.141Z,35.70
2019-02-22T16:15:40.808Z,33.35
2019-02-22T16:18:09.274Z,33.88
2019-02-22T16:20:37.540Z,34.05
2019-02-22T16:23:05.809Z,33.65
2019-02-22T16:25:34.102Z,38.55
2019-02-22T16:28:02.413Z,35.78
2019-02-22T16:30:31.472Z,35.75
2019-02-22T16:32:59.775Z,34.58
2019-02-22T16:35:28.163Z,32.83
2019-02-22T16:38:15.907Z,35.43
2019-02-22T16:40:44.248Z,38.23
2019-02-22T16:43:12.513Z,36.98
2019-02-22T16:45:40.832Z,37.60
2019-02-22T16:48:09.091Z,41.13
2019-02-22T16:50:37.364Z,37.85
2019-02-22T16:53:05.789Z,39.85
2019-02-22T16:55:34.052Z,38.53
2019-02-22T16:58:02.324Z,41.88
2019-02-22T17:00:30.628Z,41.95
2019-02-22T17:02:58.910Z,42.75
2019-02-22T17:05:27.178Z,42.20
2019-02-22T17:07:55.464Z,44.55
2019-02-22T17:10:23.757Z,45.83
2019-02-22T17:12:52.088Z,43.73
2019-02-22T17:15:20.398Z,45.40
2019-02-22T17:18:08.116Z,46.68
2019-02-22T17:20:36.571Z,43.92
2019-02-22T17:23:04.847Z,44.77
2019-02-22T17:25:33.130Z,43.60
2019-02-22T17:28:01.440Z,46.85
2019-02-22T17:30:29.787Z,49.08
2019-02-22T17:32:58.070Z,53.35
2019-02-22T17:35:26.349Z,53.55
2019-02-22T17:37:54.608Z,47.88
2019-02-22T17:40:31.260Z,47.62
2019-02-22T17:42:59.516Z,68.75
2019-02-22T17:45:27.796Z,60.63
2019-02-22T17:47:56.084Z,52.13
2019-02-22T17:50:24.355Z,51.08
2019-02-22T17:52:52.622Z,43.92
2019-02-22T17:55:20.974Z,49.30
2019-02-22T17:57:49.236Z,51.63
2019-02-22T18:00:24.988Z,57.88
2019-02-22T18:02:53.299Z,52.23
2019-02-22T18:05:21.563Z,57.15
2019-02-22T18:07:49.848Z,55.90
2019-02-22T18:10:18.115Z,60.33
2019-02-22T18:12:46.378Z,60.10
2019-02-22T18:15:35.712Z,60.60
2019-02-22T18:18:03.980Z,62.73
2019-02-22T18:20:32.260Z,63.83
2019-02-22T18:23:00.685Z,64.07
2019-02-22T18:25:29.059Z,60.55
2019-02-22T18:27:57.444Z,63.52
2019-02-22T18:30:25.735Z,62.65
2019-02-22T18:32:54.116Z,67.08
2019-02-22T18:35:26.626Z,70.75
2019-02-22T18:37:54.977Z,67.00
2019-02-22T18:40:44.224Z,67.03
2019-02-22T18:43:12.501Z,66.20
2019-02-22T18:45:40.778Z,67.75
2019-02-22T18:48:09.057Z,69.65
2019-02-22T18:50:37.457Z,64.90
2019-02-22T18:53:05.993Z,78.95
2019-02-22T18:55:34.299Z,82.72
2019-02-22T18:58:02.584Z,81.08
2019-02-22T19:00:30.959Z,105.58
2019-02-22T19:02:59.243Z,89.10
2019-02-22T19:05:27.552Z,133.37
2019-02-22T19:07:55.810Z,106.65
2019-02-22T19:10:24.096Z,111.08
2019-02-22T19:12:52.408Z,119.72
2019-02-22T19:15:20.676Z,136.82
2019-02-22T19:17:48.941Z,128.75
2019-02-22T19:20:20.048Z,115.92
2019-02-22T19:25:35.329Z,170.02
2019-02-22T19:28:03.587Z,160.20
2019-02-22T19:30:31.884Z,176.20
2019-02-22T19:33:00.289Z,155.20
2019-02-22T19:35:28.543Z,155.32
2019-02-22T19:37:56.808Z,152.90
2019-02-22T19:40:46.138Z,146.10
2019-02-22T19:43:14.396Z,143.50
2019-02-22T19:45:42.663Z,150.93
2019-02-22T19:48:11.041Z,140.30
2019-02-22T19:50:41.690Z,140.55
2019-02-22T19:53:09.306Z,129.70
2019-02-22T19:55:37.715Z,108.20
2019-02-22T19:58:05.985Z,123.92
2019-02-22T20:00:34.258Z,131.95
2019-02-22T20:03:02.565Z,102.32
2019-02-22T20:05:30.907Z,107.87
2019-02-22T20:07:59.175Z,148.55
2019-02-22T20:10:27.494Z,166.45
2019-02-22T20:12:55.757Z,136.85
2019-02-22T20:15:24.026Z,141.35
2019-02-22T20:17:54.444Z,119.13
2019-02-22T20:20:22.314Z,119.77
2019-02-22T20:22:50.576Z,149.20
2019-02-22T20:25:18.901Z,121.92
2019-02-22T20:27:59.792Z,131.32
2019-02-22T20:30:28.089Z,133.20
2019-02-22T20:32:56.380Z,128.20
2019-02-22T20:35:27.046Z,127.70
2019-02-22T20:37:55.340Z,125.62
2019-02-22T20:40:23.603Z,105.67
2019-02-22T20:42:51.974Z,129.42
2019-02-22T20:45:20.291Z,120.55
2019-02-22T20:47:48.551Z,122.62
2019-02-22T20:50:16.810Z,110.17
2019-02-22T20:52:45.119Z,126.30
2019-02-22T20:55:13.826Z,121.45
2019-02-22T20:57:42.090Z,133.40
2019-02-22T21:00:22.291Z,119.15
2019-02-22T21:02:50.557Z,118.50
2019-02-22T21:05:18.896Z,123.05
2019-02-22T21:07:47.238Z,109.22
2019-02-22T21:10:17.916Z,97.30
2019-02-22T21:12:46.180Z,100.05
2019-02-22T21:15:14.798Z,100.92
2019-02-22T21:17:43.109Z,97.30
2019-02-22T21:20:16.869Z,90.83
2019-02-22T21:22:45.170Z,96.25
2019-02-22T21:25:13.431Z,107.40
2019-02-22T21:27:41.750Z,89.55
2019-02-22T21:30:18.243Z,113.10
2019-02-22T21:32:46.514Z,103.38
2019-02-22T21:35:14.801Z,99.87
2019-02-22T21:37:44.016Z,108.85
2019-02-22T21:40:13.205Z,112.03
2019-02-22T21:42:41.591Z,122.87
2019-02-22T21:45:14.980Z,184.52
2019-02-22T21:47:54.340Z,106.55
2019-02-22T21:50:17.518Z,105.50
2019-02-22T21:52:45.821Z,106.87
2019-02-22T21:55:15.167Z,138.00
2019-02-22T21:57:43.428Z,128.47
2019-02-22T22:00:22.902Z,139.95
2019-02-22T22:02:51.177Z,132.27
2019-02-22T22:05:19.495Z,117.35
2019-02-22T22:07:47.794Z,120.45
2019-02-22T22:10:16.064Z,142.68
2019-02-22T22:12:44.428Z,181.30
2019-02-22T22:15:33.768Z,131.20
2019-02-22T22:18:02.043Z,151.35
2019-02-22T22:20:30.336Z,113.45
2019-02-22T22:22:58.622Z,182.07
2019-02-22T22:25:26.897Z,133.30
2019-02-22T22:27:55.160Z,159.82
2019-02-22T22:30:23.485Z,146.70
2019-02-22T22:32:52.684Z,138.28
2019-02-22T22:35:21.244Z,146.93
2019-02-22T22:37:49.549Z,137.07
2019-02-22T22:40:17.815Z,133.97
2019-02-22T22:42:46.089Z,144.53
2019-02-22T22:45:15.659Z,187.18
2019-02-22T22:47:43.960Z,167.80
2019-02-22T22:50:16.623Z,139.20
2019-02-22T22:52:44.931Z,142.47
2019-02-22T22:55:13.201Z,138.88
2019-02-22T22:57:41.470Z,181.32
2019-02-22T23:00:50.258Z,152.72
2019-02-22T23:03:19.200Z,155.67
2019-02-22T23:05:47.465Z,244.35
2019-02-22T23:08:15.745Z,169.10
2019-02-22T23:10:44.007Z,166.45
2019-02-22T23:13:12.283Z,161.57
2019-02-22T23:15:40.644Z,165.88
2019-02-22T23:18:08.964Z,171.10
2019-02-22T23:20:37.231Z,176.75
2019-02-22T23:23:05.536Z,204.55
2019-02-22T23:25:33.795Z,215.50
2019-02-22T23:28:02.120Z,191.05
2019-02-22T23:30:30.431Z,196.72
2019-02-22T23:32:58.707Z,209.07
2019-02-22T23:35:26.980Z,184.18
2019-02-22T23:37:55.275Z,254.05
2019-02-22T23:40:23.536Z,241.27
2019-02-22T23:42:51.875Z,243.45
2019-02-22T23:45:20.422Z,272.98
2019-02-22T23:47:48.781Z,274.07
2019-02-22T23:50:17.045Z,310.43
2019-02-22T23:52:45.386Z,334.98
2019-02-22T23:55:13.880Z,342.82
2019-02-22T23:57:42.161Z,299.58
